Data for 07/31/2008

Time Sea-Level Adjusted Pressure Absolute Pressure Temperature Relative Humidity Dew Point   
(mb) (inHg) (mb) (inHg) (C) (F) (%) (C) (F)
00:05 1019 30.09 848 25.04 14.4 58 38 0.5 32.9
00:10 1019 30.09 848 25.04 14.4 57.8 38 0.3 32.6
00:15 1019 30.09 848 25.04 14.2 57.6 40 0.7 33.3
00:20 1019 30.09 848 25.04 13.9 57 39 0.2 32.4
00:25 1019 30.09 848 25.04 13.7 56.6 43 1.4 34.5
00:30 1019 30.09 848 25.04 13.1 55.5 45 1.6 34.8
00:35 1019 30.09 848 25.04 12.8 55 43 0.7 33.2
00:40 1019 30.09 848 25.04 13.3 55.9 40 -0 31.9
00:45 1019 30.09 848 25.04 13.5 56.3 37 -0.6 30.8
00:50 1019 30.09 848 25.04 13.6 56.5 37 -0.7 30.7
00:55 1019 30.09 848 25.04 13.6 56.5 36 -1 30.3
01:00 1019 30.09 848 25.04 13.8 56.8 36 -0.9 30.3
01:05 1019 30.09 848 25.04 13.6 56.5 38 -0.2 31.6
01:10 1019 30.09 848 25.04 13.4 56.1 37 -1 30.1
01:15 1019 30.09 848 25.04 13.5 56.3 37 -0.7 30.7
01:20 1019 30.09 848 25.04 13.4 56.1 37 -0.8 30.6
01:25 1019 30.09 848 25.04 13.5 56.3 34 -1.9 28.5
01:30 1019 30.09 848 25.04 13.8 56.9 34 -1.8 28.8
01:35 1019 30.09 848 25.04 13.8 56.9 34 -1.7 28.9
01:40 1019 30.09 848 25.04 13.9 57 35 -1.3 29.6
01:45 1019 30.09 848 25.04 13.9 57 32 -2.3 27.9
01:50 1019 30.09 848 25.04 13.9 57.1 37 -0.4 31.3
01:55 1019 30.09 848 25.04 13.7 56.6 37 -0.8 30.6
02:00 1019 30.09 848 25.04 13.5 56.2 39 -0.3 31.5
02:05 1019 30.09 848 25.04 13.2 55.7 39 -0.3 31.5
02:10 1019 30.09 848 25.04 12.8 55 42 0.2 32.3
02:15 1019 30.09 848 25.04 12.2 54 42 -0.2 31.7
02:20 1019 30.09 848 25.04 12.4 54.2 40 -0.8 30.6
02:25 1019 30.09 848 25.04 12.8 55 37 -1.7 29
02:30 1019 30.09 849 25.07 12.9 55.3 37 -1.3 29.6
02:35 1019 30.09 849 25.07 13.1 55.6 40 -0.3 31.5
02:40 1019 30.09 849 25.07 12.7 54.8 39 -0.8 30.6
02:45 1020 30.12 849 25.07 12.5 54.4 41 -0.4 31.3
02:50 1020 30.12 849 25.07 11.9 53.3 42 -0.7 30.8
02:55 1020 30.12 849 25.07 11.8 53.2 43 -0.3 31.5
03:00 1020 30.12 849 25.07 11.4 52.5 43 -0.6 30.8
03:05 1019 30.09 849 25.07 11.4 52.5 42 -0.9 30.4
03:10 1020 30.12 849 25.07 11.8 53.2 37 -2.5 27.5
03:15 1020 30.12 849 25.07 12.1 53.9 39 -1.4 29.5
03:20 1020 30.12 849 25.07 11.9 53.5 38 -1.8 28.7
03:25 1020 30.12 849 25.07 11.7 53.1 40 -1.4 29.4
03:30 1020 30.12 849 25.07 11.7 53 38 -2.1 28.3
03:35 1020 30.12 849 25.07 12 53.7 36 -2.6 27.3
03:40 1020 30.12 849 25.07 12.2 54 36 -2.4 27.7
03:45 1020 30.12 849 25.07 12.1 53.9 37 -2 28.4
03:50 1020 30.12 849 25.07 11.7 53.1 38 -2 28.3
03:55 1020 30.12 849 25.07 11.7 53.1 37 -2.4 27.6
04:00 1020 30.12 849 25.07 11.8 53.2 37 -2.5 27.4
04:05 1020 30.12 849 25.07 11.8 53.3 37 -2.4 27.6
04:10 1020 30.12 849 25.07 11.7 53.1 37 -2.3 27.8
04:15 1020 30.12 849 25.07 11.7 53 38 -2.1 28.3
04:20 1020 30.12 849 25.07 11.7 53.1 38 -2.2 28
04:25 1020 30.12 849 25.07 11.7 53.1 40 -1.3 29.6
04:30 1020 30.12 849 25.07 11.6 52.8 38 -2.1 28.2
04:35 1020 30.12 849 25.07 11.4 52.5 39 -2 28.4
04:40 1020 30.12 849 25.07 11.5 52.6 38 -2.3 27.8
04:45 1020 30.12 849 25.07 11.8 53.2 39 -1.8 28.8
04:50 1020 30.12 849 25.07 11.9 53.4 37 -2.3 27.8
04:55 1020 30.12 849 25.07 11.9 53.4 40 -1.2 29.8
05:00 1020 30.12 849 25.07 11.2 52.2 43 -0.7 30.7
05:05 1020 30.12 849 25.07 11.4 52.5 36 -3 26.7
05:10 1020 30.12 849 25.07 11.6 52.9 42 -0.8 30.5
05:15 1020 30.12 849 25.07 11 51.8 44 -0.8 30.6
05:20 1020 30.12 849 25.07 10.7 51.2 44 -1.1 30.1
05:25 1020 30.12 849 25.07 10.7 51.2 45 -0.6 30.9
05:30 1020 30.12 849 25.07 9.9 49.8 47 -0.9 30.4
05:35 1020 30.12 849 25.07 9.9 49.8 43 -2.1 28.3
05:40 1020 30.12 849 25.07 10.6 51.1 39 -2.7 27.2
05:45 1020 30.12 849 25.07 11 51.8 38 -2.7 27.1
05:50 1020 30.12 849 25.07 10.9 51.7 40 -2 28.3
05:55 1020 30.12 849 25.07 10.7 51.2 41 -2 28.5
06:00 1020 30.12 849 25.07 10.4 50.7 44 -1.4 29.4
06:05 1020 30.12 849 25.07 10.1 50.1 44 -1.7 28.9
06:10 1020 30.12 849 25.07 10.1 50.1 45 -1.2 29.9
06:15 1020 30.12 849 25.07 9.8 49.7 46 -1.1 29.9
06:20 1020 30.12 849 25.07 9.8 49.7 45 -1.5 29.3
06:25 1020 30.12 849 25.07 9.9 49.8 44 -1.7 29
06:30 1020 30.12 849 25.07 10 50 44 -1.8 28.8
06:35 1020 30.12 849 25.07 10.1 50.3 43 -1.9 28.6
06:40 1020 30.12 849 25.07 10.2 50.3 44 -1.4 29.6
06:45 1020 30.12 849 25.07 10.1 50.2 43 -1.8 28.8
06:50 1020 30.12 849 25.07 10.2 50.4 42 -2 28.3
06:55 1020 30.12 849 25.07 10.4 50.7 43 -1.7 28.9
07:00 1020 30.12 849 25.07 10.4 50.7 43 -1.8 28.8
07:05 1020 30.12 849 25.07 10.4 50.6 43 -1.7 28.9
07:10 1020 30.12 849 25.07 10.4 50.8 44 -1.1 30
07:15 1020 30.12 849 25.07 10.2 50.4 46 -0.8 30.5
07:20 1020 30.12 849 25.07 10.3 50.6 46 -0.8 30.5
07:25 1020 30.12 849 25.07 10.6 51.1 44 -1.1 30
07:30 1020 30.12 849 25.07 11 51.9 43 -1 30.1
07:35 1020 30.12 849 25.07 11.5 52.7 41 -1.4 29.5
07:40 1020 30.12 849 25.07 11.9 53.5 41 -0.8 30.6
07:45 1020 30.12 850 25.1 12.3 54.1 41 -0.5 31.1
07:50 1020 30.12 850 25.1 12.4 54.3 41 -0.6 30.9
07:55 1020 30.12 850 25.1 12.8 55 41 0.1 32.2
08:00 1021 30.15 850 25.1 13.1 55.6 39 -0.4 31.3
08:05 1021 30.15 850 25.1 13.5 56.4 38 -0.3 31.5
08:10 1021 30.15 850 25.1 14 57.2 38 -0.1 31.8
08:15 1021 30.15 850 25.1 14.5 58 35 -0.8 30.5
08:20 1021 30.15 850 25.1 14.6 58.3 36 -0.2 31.6
08:25 1021 30.15 850 25.1 14.9 58.8 35 -0.2 31.6
08:30 1021 30.15 850 25.1 15.6 60 36 0.7 33.2
08:35 1020 30.12 850 25.1 15.9 60.5 34 0.2 32.3
08:40 1021 30.15 850 25.1 16.4 61.5 32 -0.1 31.8
08:45 1021 30.15 850 25.1 17 62.6 31 -0.3 31.4
08:50 1020 30.12 850 25.1 17.5 63.5 30 -0.3 31.4
08:55 1020 30.12 850 25.1 17.6 63.8 29 -0.5 31.2
09:00 1020 30.12 850 25.1 17.5 63.5 30 0.1 32.1
09:05 1020 30.12 850 25.1 18.2 64.7 28 -0.5 31.1
09:10 1020 30.12 850 25.1 19.1 66.4 26 -0.6 31
09:15 1020 30.12 850 25.1 19.2 66.5 27 -0.2 31.6
09:20 1020 30.12 850 25.1 18.5 65.3 27 -0.5 31.1
09:25 1020 30.12 850 25.1 19 66.1 25 -1.1 30
09:30 1020 30.12 850 25.1 19.3 66.7 26 -0.7 30.7
09:35 1020 30.12 849 25.07 19.4 66.8 25 -1.2 29.9
09:40 1020 30.12 849 25.07 19.5 67.1 25 -1.1 30.1
09:45 1020 30.12 849 25.07 18.9 66 25 -1.2 29.9
09:50 1020 30.12 849 25.07 19.5 67.2 25 -0.7 30.7
09:55 1020 30.12 849 25.07 19.8 67.6 23 -1.7 28.9
10:00 1020 30.12 849 25.07 19.3 66.7 24 -1.6 29.2
10:05 1020 30.12 849 25.07 18.9 65.9 26 -0.9 30.4
10:10 1020 30.12 849 25.07 19.3 66.7 25 -1.3 29.7
10:15 1020 30.12 849 25.07 19.5 67 26 -0.2 31.6
10:20 1020 30.12 849 25.07 20 67.9 25 -0.7 30.7
10:25 1020 30.12 849 25.07 20 68.1 26 0.3 32.5
10:30 1020 30.12 849 25.07 20.2 68.3 25 -0.1 31.8
10:35 1020 30.12 849 25.07 20.7 69.2 25 0.1 32.2
10:40 1020 30.12 849 25.07 20.4 68.8 25 -0.1 31.9
10:45 1020 30.12 849 25.07 20.8 69.4 27 1.1 34
10:50 1020 30.12 849 25.07 20.1 68.2 27 0.6 33.2
10:55 1020 30.12 849 25.07 19.9 67.8 26 -0.3 31.5
11:00 1020 30.12 849 25.07 20.8 69.4 25 0.3 32.6
11:05 1020 30.12 849 25.07 21.6 70.8 26 1.3 34.4
11:10 1020 30.12 849 25.07 22.3 72.2 23 0.5 32.9
11:15 1020 30.12 849 25.07 22.6 72.7 22 0.2 32.4
11:20 1020 30.12 849 25.07 22.7 72.8 22 0.3 32.5
11:25 1020 30.12 849 25.07 22.8 73.1 22 0.1 32.2
11:30 1020 30.12 849 25.07 22.1 71.8 22 -0.1 31.8
11:35 1020 30.12 849 25.07 22.5 72.4 21 -0.7 30.8
11:40 1020 30.12 849 25.07 23 73.4 21 -0.5 31
11:45 1019 30.09 849 25.07 22.9 73.2 21 -0.2 31.7
11:50 1019 30.09 849 25.07 22 71.5 22 -0.4 31.3
11:55 1019 30.09 848 25.04 22.9 73.3 20 -0.8 30.5
12:00 1019 30.09 848 25.04 23.4 74 20 -0.6 30.9
12:05 1019 30.09 848 25.04 22.6 72.7 22 -0 31.9
12:10 1019 30.09 848 25.04 23.4 74.1 20 -0.9 30.3
12:15 1019 30.09 848 25.04 24.5 76.1 19 -0.5 31.1
12:20 1019 30.09 848 25.04 24.7 76.4 19 -0.5 31.2
12:25 1019 30.09 848 25.04 25.1 77.1 18 -0.8 30.5
12:30 1019 30.09 848 25.04 25.1 77.1 20 0.6 33
12:35 1019 30.09 848 25.04 24.1 75.3 20 -0.4 31.3
12:40 1019 30.09 848 25.04 24.1 75.4 21 0.6 33
12:45 1019 30.09 848 25.04 24.4 75.9 21 0.8 33.4
12:50 1019 30.09 848 25.04 24.3 75.7 20 -0.1 31.8
12:55 1018 30.06 848 25.04 25 77 19 0.4 32.6
13:00 1018 30.06 848 25.04 24.2 75.6 21 0.4 32.8
13:05 1018 30.06 848 25.04 24.1 75.3 17 -2.1 28.3
13:10 1018 30.06 848 25.04 24 75.2 18 -1.3 29.7
13:15 1018 30.06 847 25.01 24.1 75.3 17 -2.5 27.6
13:20 1018 30.06 847 25.01 24.4 75.8 17 -2.2 28
13:25 1018 30.06 847 25.01 24.9 76.8 14 -3.9 25
13:30 1018 30.06 847 25.01 25.7 78.2 13 -4.4 24.1
13:35 1018 30.06 847 25.01 25 77 14 -4.5 24
13:40 1018 30.06 847 25.01 25.3 77.5 14 -3.9 24.9
13:45 1018 30.06 847 25.01 25.3 77.5 14 -4 24.8
13:50 1018 30.06 847 25.01 26.5 79.7 13 -3.6 25.6
13:55 1018 30.06 847 25.01 27 80.5 13 -3.2 26.3
14:00 1018 30.06 847 25.01 26.8 80.2 13 -3.3 26.1
14:05 1018 30.06 847 25.01 27.2 81 13 -3 26.6
14:10 1018 30.06 847 25.01 27.8 82.1 13 -3.2 26.2
14:15 1018 30.06 847 25.01 27.1 80.7 14 -2.6 27.3
14:20 1018 30.06 847 25.01 26.5 79.6 14 -3.3 26.1
14:25 1018 30.06 847 25.01 26.8 80.2 14 -2.3 27.8
14:30 1017 30.03 847 25.01 27.6 81.7 14 -2 28.4
14:35 1017 30.03 847 25.01 28.3 82.9 13 -2.6 27.2
14:40 1017 30.03 847 25.01 27.4 81.4 13 -2.9 26.8
14:45 1017 30.03 846 24.98 26.8 80.2 13 -3.6 25.6
14:50 1017 30.03 846 24.98 27.4 81.2 13 -3.7 25.3
14:55 1017 30.03 846 24.98 27.4 81.3 13 -2.8 27
15:00 1017 30.03 846 24.98 27.4 81.4 13 -2.6 27.2
15:05 1017 30.03 846 24.98 28.2 82.8 14 -1.7 28.9
15:10 1017 30.03 846 24.98 28.5 83.4 13 -2 28.4
15:15 1017 30.03 846 24.98 28.1 82.5 13 -2.2 28
15:20 1017 30.03 846 24.98 27.8 82 14 -2.2 28.1
15:25 1017 30.03 846 24.98 28.4 83.1 14 -1 30.2
15:30 1017 30.03 846 24.98 28.7 83.6 13 -1.8 28.8
15:35 1017 30.03 846 24.98 27.8 82 14 -2.2 28.1
15:40 1017 30.03 846 24.98 27.6 81.6 14 -2.2 28
15:45 1016 30 846 24.98 27.7 81.8 14 -1.8 28.8
15:50 1016 30 846 24.98 28.1 82.7 14 -1.5 29.2
15:55 1016 30 846 24.98 28.5 83.2 12 -3.8 25.2
16:00 1016 30 845 24.95 29.9 85.7 11 -3.3 26.1
16:05 1016 30 845 24.95 29.9 85.8 12 -2.7 27.2
16:10 1016 30 845 24.95 29.7 85.4 11 -3.4 25.9
16:15 1016 30 845 24.95 30.4 86.6 12 -2 28.3
16:20 1016 30 845 24.95 30.8 87.4 11 -2.6 27.4
16:25 1016 30 845 24.95 30.2 86.3 11 -2.8 26.9
16:30 1016 30 845 24.95 29.7 85.5 12 -2.6 27.3
16:35 1016 30 845 24.95 29.8 85.6 12 -2.3 27.8
16:40 1016 30 845 24.95 30 86 11 -3 26.6
16:45 1016 30 845 24.95 29.9 85.8 12 -2.5 27.4
16:50 1016 30 845 24.95 30.1 86.2 12 -2.5 27.5
16:55 1016 30 845 24.95 30.2 86.4 12 -2.1 28.3
17:00 1016 30 845 24.95 30.4 86.7 12 -2.1 28.2
17:05 1016 30 845 24.95 30.3 86.6 12 -1.5 29.3
17:10 1016 30 845 24.95 29.5 85 12 -2.4 27.8
17:15 1015 29.97 845 24.95 29.1 84.5 13 -2.1 28.2
17:20 1015 29.97 845 24.95 28.8 83.9 13 -2.4 27.7
17:25 1015 29.97 845 24.95 29.6 85.2 12 -2.3 27.9
17:30 1015 29.97 845 24.95 29 84.2 13 -1.9 28.6
17:35 1015 29.97 845 24.95 28.6 83.4 13 -2.3 27.8
17:40 1015 29.97 845 24.95 29.4 85 12 -2.2 28.1
17:45 1015 29.97 845 24.95 29.5 85.1 12 -2.6 27.3
17:50 1015 29.97 845 24.95 28.7 83.7 12 -3.2 26.3
17:55 1015 29.97 844 24.92 29 84.3 12 -2.5 27.6
18:00 1015 29.97 844 24.92 28.9 84 13 -2.5 27.6
18:05 1015 29.97 844 24.92 28.9 83.9 12 -2.7 27.1
18:10 1015 29.97 844 24.92 29.1 84.4 12 -3 26.7
18:15 1015 29.97 844 24.92 28.7 83.7 12 -3.3 26.1
18:20 1015 29.97 844 24.92 28.5 83.3 12 -3.8 25.2
18:25 1015 29.97 844 24.92 28.7 83.7 13 -2.4 27.6
18:30 1015 29.97 844 24.92 29.1 84.3 12 -2.4 27.7
18:35 1015 29.97 844 24.92 29.3 84.8 12 -3 26.7
18:40 1015 29.97 844 24.92 28.9 84.1 13 -2.4 27.7
18:45 1015 29.97 844 24.92 28.5 83.2 12 -3.6 25.5
18:50 1015 29.97 844 24.92 28.5 83.3 12 -3.7 25.4
18:55 1015 29.97 844 24.92 28.4 83.1 12 -3.8 25.2
19:00 1015 29.97 844 24.92 28.6 83.4 12 -3.6 25.5
19:05 1015 29.97 844 24.92 28.8 83.8 12 -3.2 26.2
19:10 1015 29.97 844 24.92 28.9 83.9 12 -3.1 26.4
19:15 1015 29.97 844 24.92 28.4 83.2 12 -3.2 26.2
19:20 1015 29.97 844 24.92 28.1 82.6 12 -4 24.9
19:25 1015 29.97 844 24.92 27.9 82.3 12 -3.5 25.7
19:30 1015 29.97 844 24.92 27.8 82.1 12 -3.9 24.9
19:35 1015 29.97 844 24.92 27.7 81.9 13 -3.4 25.8
19:40 1015 29.97 844 24.92 27.6 81.8 13 -2.9 26.7
19:45 1015 29.97 844 24.92 27.6 81.7 13 -3 26.6
19:50 1015 29.97 844 24.92 27.5 81.6 13 -3 26.6
19:55 1015 29.97 844 24.92 27.5 81.5 14 -2.5 27.5
20:00 1015 29.97 844 24.92 27.3 81.2 15 -0.9 30.4
20:05 1015 29.97 844 24.92 27.1 80.8 15 -1.1 30.1
20:10 1015 29.97 844 24.92 27.1 80.7 15 -1.8 28.8
20:15 1015 29.97 844 24.92 27 80.5 15 -1.4 29.5
20:20 1015 29.97 844 24.92 26.8 80.2 15 -1.4 29.5
20:25 1015 29.97 844 24.92 26.4 79.6 19 1.5 34.8
20:30 1015 29.97 844 24.92 25.9 78.6 20 1.3 34.3
20:35 1015 29.97 844 24.92 25.5 77.9 24 3.6 38.4
20:40 1015 29.97 844 24.92 25.1 77.2 20 0.8 33.4
20:45 1015 29.97 844 24.92 25 77 20 0.5 32.8
20:50 1015 29.97 844 24.92 24.8 76.6 19 0.1 32.2
20:55 1015 29.97 844 24.92 24.5 76 24 3.1 37.5
21:00 1015 29.97 844 24.92 23.6 74.5 28 4.5 40.1
21:05 1015 29.97 844 24.92 23.1 73.5 29 4.3 39.7
21:10 1015 29.97 844 24.92 22.3 72.2 28 3.3 37.9
21:15 1015 29.97 844 24.92 22 71.6 33 5.3 41.6
21:20 1015 29.97 844 24.92 21 69.7 34 4.6 40.3
21:25 1015 29.97 844 24.92 20.4 68.7 36 4.8 40.7
21:30 1015 29.97 844 24.92 20.1 68.2 35 4.5 40.1
21:35 1015 29.97 844 24.92 20.1 68.1 32 3.1 37.6
21:40 1015 29.97 844 24.92 20 68.1 29 1.8 35.3
21:45 1015 29.97 844 24.92 20.4 68.7 29 1.8 35.3
21:50 1015 29.97 844 24.92 20.8 69.5 26 0.6 33.1
21:55 1015 29.97 844 24.92 21.2 70.1 27 1.4 34.6
22:00 1015 29.97 844 24.92 20.8 69.5 27 1.4 34.6
22:05 1015 29.97 844 24.92 20.8 69.4 27 1.4 34.5
22:10 1015 29.97 844 24.92 20.5 68.8 27 1.1 34
22:15 1015 29.97 844 24.92 20.5 68.9 28 1.6 34.9
22:20 1015 29.97 844 24.92 19.9 67.9 29 1.5 34.7
22:25 1015 29.97 844 24.92 20.1 68.1 28 1.4 34.5
22:30 1015 29.97 844 24.92 19.9 67.8 28 1.2 34.1
22:35 1015 29.97 844 24.92 20.1 68.2 29 1.7 35.1
22:40 1015 29.97 844 24.92 20 68 26 0.2 32.4
22:45 1015 29.97 844 24.92 20.4 68.8 27 0.9 33.7
22:50 1015 29.97 844 24.92 20.1 68.2 27 0.7 33.2
22:55 1015 29.97 844 24.92 20.2 68.3 27 0.7 33.3
23:00 1015 29.97 844 24.92 20.1 68.2 26 0.3 32.5
23:05 1015 29.97 844 24.92 20.2 68.4 26 0.3 32.5
23:10 1015 29.97 844 24.92 20.3 68.5 26 0.5 32.9
23:15 1015 29.97 844 24.92 20 68 26 0.3 32.6
23:20 1015 29.97 844 24.92 19.9 67.9 27 0.5 32.9
23:25 1015 29.97 844 24.92 20 67.9 27 0.4 32.8
23:30 1015 29.97 844 24.92 19.8 67.7 26 0.2 32.3
23:35 1015 29.97 844 24.92 19.8 67.7 27 0.2 32.4
23:40 1015 29.97 844 24.92 20.1 68.1 26 0.1 32.1
23:45 1015 29.97 844 24.92 20 68 27 0.4 32.6
23:50 1015 29.97 844 24.92 19.7 67.4 28 0.6 33
23:55 1015 29.97 844 24.92 19.5 67 27 0.1 32.1
24:00 1015 29.97 844 24.92 19.5 67.1 26 -0.4 31.3